Terminal Aerodrome Forecast
Issued by NWS Quad Cities IA IL

Home | Current Version | Previous Version | Text Only | Print | Product List | Glossary On
Versions: 1 2 3 4 5 6 7 8 9 10 11 12 13 14 15 16 17
000
FTUS43 KDVN 200904 AAA
TAFMLI
TAF AMD
KMLI 200904Z 2009/2106 09008KT P6SM OVC150
     FM201500 07007KT P6SM VCSH OVC080
     FM201700 07007KT P6SM -RA OVC060
     FM202100 05006KT P6SM VCSH OVC050
     FM210000 03005KT P6SM SCT050 OVC120
     FM210200 32003KT P6SM OVC120=

USA.gov is the U.S. government's official web portal to all federal, state and local government web resources and services.